Tiempo atmosférico en la estación meteorológica de Sta.Cruz de Tenerife, Santa Cruz de Tenerife (35 m.)



Fecha
DESCASC
Temp. máxima en grados centígrados (hora)
DESCASC
Temp. mínima en grados centígrados (hora)
DESCASC
Temp. media en grados centígrados
DESCASC
Racha de viento máxima en m/sg (hora)
DESCASC
Velocidad máxima media en intervalos de 10 minutos(hora)
DESCASC
Precipitaciones diarias en mm
DESCASC
Precipitaciones de 00:00 a 06:00 en mm
DESCASC
Precipitaciones de 06:00 a 12:00 en mm
DESCASC
Precipitaciones de 12:00 a 18:00 en mm
DESCASC
Precipitaciones de 18:00 a 24:00 en mm
DESCASC
13-10-2019 26 (15:10) 20 (06:10) 23 6.11 (14:40) 3.33 (03:40) 0 0 0 0 0
12-10-2019 26.8 (16:20) 20.6 (06:50) 23.7 7.22 (02:40) 5 (13:20) 0 0 0 0 0
10-10-2019 27.7 (13:00) 21.2 (00:00) 24.5 11.39 (16:40) 6.11 (16:00) 0 0 0 0 0
09-10-2019 28.3 (16:10) 20.2 (00:00) 24.3 11.94 (14:00) 7.22 (14:00) 0 0 0 0 0
08-10-2019 27.6 (17:10) 20.2 (00:00) 23.9 9.17 (15:50) 5.83 (12:50) 0 0 0 0 0
07-10-2019 26.5 (17:10) 20.1 (00:00) 23.3 9.44 (12:30) 5.28 (14:10) 0 0 0 0 0
06-10-2019 26.6 (14:50) 22.1 (00:00) 24.4 10.28 (16:00) 5.83 (15:30) 0 0 0 0 0
05-10-2019 27.8 (16:40) 22.8 (03:00) 25.3 11.39 (13:10) 5.83 (16:00) 0 0 0 0 0
04-10-2019 31.5 (15:50) 21.8 (00:00) 26.6 9.72 (22:00) 5.28 (20:20) 0 0 0 0 0
03-10-2019 27.2 (16:40) 21.5 (00:00) 24.4 8.33 (13:10) 4.72 (11:10) 0 0 0 0 0
02-10-2019 26.4 (16:10) 21.7 (00:00) 24.1 6.67 (14:20) 4.17 (14:20) 0 0 0 0 0
01-10-2019 31.8 (13:20) 22.2 (00:00) 27 8.61 (15:50) 3.89 (13:20) 0 0 0 0 0
30-09-2019 31.8 (15:50) 21.2 (00:00) 26.5 8.61 (17:40) 5.28 (17:50) 0 0 0 0 0
29-09-2019 27.5 (17:00) 21 (00:00) 24.3 8.61 (12:30) 5 (14:30) 0 0 0 0 0
28-09-2019 26.3 (15:50) 21 (00:00) 23.6 11.39 (16:10) 7.5 (15:40) 0 0 0 0 0
27-09-2019 29.4 (16:00) 21.3 (00:00) 25.3 11.67 (14:00) 6.67 (14:00) 0 0 0 0 0
26-09-2019 27.5 (16:50) 22.2 (00:00) 24.9 11.94 (15:00) 6.94 (17:00) 0 0 0 0 0
25-09-2019 29 (15:30) 20.9 (00:00) 24.9 10.28 (16:10) 6.11 (16:10) 0 0 0 0 0
24-09-2019 28.1 (16:20) 21.4 (00:00) 24.8 9.44 (13:00) 5.56 (14:40) 0 0 0 0 0
23-09-2019 27.8 (15:50) 21.8 (00:00) 24.8 9.72 (15:00) 5.56 (15:10) 0 0 0 0 0
22-09-2019 29.3 (14:40) 22 (00:00) 25.6 10.28 (17:40) 5.83 (18:30) 0 0 0 0 0
21-09-2019 27.5 (15:20) 21 (00:00) 24.3 6.67 (16:40) 5 (16:40) 0 0 0 0 0
20-09-2019 28.5 (16:20) 21.1 (00:00) 24.8 8.33 (14:30) 5.56 (14:20) 0 0 0 0 0
19-09-2019 28.2 (14:30) 20.8 (00:00) 24.5 10.83 (15:10) 6.67 (15:10) 0 0 0 0 0
18-09-2019 26.8 (16:10) 20.6 (00:00) 23.7 10.56 (15:00) 6.11 (15:10) 0 0 0 0 0
17-09-2019 27.2 (15:40) 21.9 (00:00) 24.6 9.17 (12:10) 5.56 (17:50) 0 0 0 0 0

Gráficas

Temp. máximas Temp. mínimas Temp. medias Precipitaciones Rachas de viento máximas Velocidades máximas media en intervalos de 10 minutos

Datos horarios

Fecha y hora oficial Temperatura (ºC) Velocidad del viento (km/h) Dirección del viento Racha (km/h) Dirección de racha Precipitación (mm) Presión (hPa) Tendencia (hPa) Humedad (%)
2019-10-16 23:00:00 21.3 6 Nordeste 12 Nordeste 0 1016.9 1.9 64
2019-10-16 22:00:00 21.8 9 Nordeste 16 Este 0 1016.5 1.7 62
2019-10-16 21:00:00 22.1 6 Este 17 Norte 0 1015.6 0.8 59
2019-10-16 20:00:00 22.3 11 Nordeste 23 Este 0 1015 0.1 61
2019-10-16 19:00:00 22.5 12 Este 25 Este 0 1014.8 -0.5 67
2019-10-16 18:00:00 23 14 Este 29 Este 0 1014.8 -0.4 64
2019-10-16 17:00:00 23.4 14 Este 28 Este 0 1014.9 -0.9 63
2019-10-16 16:00:00 24.2 17 Este 28 Este 0 1015.3 -1.3 59
2019-10-16 15:00:00 22.8 15 Este 31 Este 0 1015.2 -1.5 66
2019-10-16 14:00:00 23.2 16 Este 32 Este 0 1015.8 -0.8 63
2019-10-16 13:00:00 23.6 18 Este 29 Este 0 1016.6 0.2 65
2019-10-16 12:00:00 24.2 15 Este 28 Este 0 1016.7 1.5 60
2019-10-16 11:00:00 24.2 12 Este 23 Este 0 1016.6 1.3 60
2019-10-16 10:00:00 22.8 8 Este 17 Este 0 1016.4 1.7 64
2019-10-16 09:00:00 22.2 8 Nordeste 15 Este 0 1015.2 0.7 64
2019-10-16 08:00:00 21.4 8 Este 19 Nordeste 0 1015.3 0.5 69
2019-10-16 07:00:00 21.5 7 Este 16 Este 0 1014.7 -0.5 71
2019-10-16 06:00:00 21.4 8 Nordeste 15 Nordeste 0 1014.5 -1.1 71
2019-10-16 05:00:00 21 4 Nordeste 14 Este 0 1014.8 -1.2 72
2019-10-16 04:00:00 20.7 3 Oeste 11 Oeste 0 1015.2 -1.3 68
2019-10-16 03:00:00 20.9 5 Oeste 10 Nordeste 0 1015.6 -1.1 67
2019-10-16 02:00:00 21.3 4 Nordeste 15 Nordeste 0 1016 -0.6 68
2019-10-16 01:00:00 21.2 2 Nordeste 14 Este 0 1016.5 0.1 65
2019-10-16 00:00:00 21.7 7 Nordeste 20 Nordeste 0 1016.7 0.8 64
2019-10-15 23:00:00 21.8 9 Nordeste 18 Nordeste 0 1016.6 1.2 66
2019-10-15 22:00:00 21.9 8 Este 20 Nordeste 0 1016.4 1.7 64
2019-10-15 21:00:00 21.9 10 Este 19 Nordeste 0 1015.9 1.6 62
2019-10-15 20:00:00 22.3 9 Nordeste 26 Norte 0 1015.4 1.2 58
2019-10-15 19:00:00 23 13 Nordeste 28 Norte 0 1014.7 -0.2 58
2019-10-15 18:00:00 24.4 17 Nordeste 32 Norte 0 1014.3 -1.3 54
2019-10-15 17:00:00 24.2 19 Este 33 Nordeste 0 1014.2 -2 57
2019-10-15 16:00:00 24.7 16 Este 33 Este 0 1014.9 -2 53
2019-10-15 15:00:00 24.4 17 Este 30 Este 0 1015.6 -1.7 57
2019-10-15 14:00:00 24.3 15 Este 30 Este 0 1016.2 -0.8 57
2019-10-15 13:00:00 23.9 12 Este 26 Este 0 1016.9 0.3 59
2019-10-15 12:00:00 23.8 15 Este 28 Este 0 1017.3 1.2 58
2019-10-15 11:00:00 22.4 15 Este 30 Este 0 1017 1.3 63
2019-10-15 10:00:00 22.6 6 Este 19 Sudeste 0 1016.6 1.1 63
2019-10-15 09:00:00 21.7 6 Nordeste 15 Nordeste 0 1016.1 0.8 62
2019-10-15 08:00:00 21.5 6 Este 14 Nordeste 0 1015.7 0.6 66
2019-10-15 07:00:00 21.4 6 Nordeste 13 Nordeste 0 1015.5 -0.1 67
2019-10-15 06:00:00 21.2 8 Norte 16 Norte 0 1015.3 -0.6 71
2019-10-15 05:00:00 21.1 3 Nordeste 19 Nordeste 0 1015.1 -1.2 71
2019-10-15 04:00:00 21.1 9 Norte 19 Norte 0 1015.6 -1.1 69
2019-10-15 03:00:00 21.1 4 Nordeste 16 Norte 0 1015.9 -1 65
2019-10-15 02:00:00 21.2 8 Nordeste 22 Nordeste 0 1016.3 -0.3 62
2019-10-15 01:00:00 21.4 8 Nordeste 16 Nordeste 0 1016.7 0.4 63
2019-10-15 00:00:00 21.6 7 Nordeste 22 Nordeste 0 1016.9 1.3 63
2019-10-14 23:00:00 21.8 9 Nordeste 21 Nordeste 0 1016.6 1.7 64
2019-10-14 22:00:00 21.9 7 Nordeste 19 Este 0 1016.3 1.6 66
2019-10-14 21:00:00 22.2 7 Nordeste 17 Nordeste 0 1015.6 0.7 60
2019-10-14 20:00:00 22.6 10 Nordeste 18 Nordeste 0 1014.9 0.1 58
2019-10-14 19:00:00 23.6 9 Nordeste 28 Nordeste 0 1014.7 0 51
2019-10-14 18:00:00 25 13 Este 27 Nordeste 0 1014.9 -0.1 46
2019-10-14 17:00:00 26.2 13 Nordeste 32 Nordeste 0 1014.8 -1.2 43
2019-10-14 16:00:00 26 17 Nordeste 30 Nordeste 0 1014.7 -1.3 46
2019-10-14 15:00:00 25.9 17 Nordeste 30 Nordeste 0 1015 -1 47
2019-10-14 14:00:00 24.6 11 Nordeste 28 Nordeste 0 1016 0.1 55
2019-10-14 13:00:00 24.4 14 Nordeste 30 Nordeste 0 1016 0.6 59
2019-10-14 12:00:00 25.6 14 Nordeste 24 Nordeste 0 1016 1.1 57
2019-10-14 11:00:00 24.6 14 Nordeste 31 Nordeste 0 1015.9 1.4 59
2019-10-14 10:00:00 23.8 8 Este 14 Este 0 1015.4 1.2 63
2019-10-14 09:00:00 21.7 4 Este 10 Este 0 1014.9 1.4 68
2019-10-14 08:00:00 20.4 3 Noroeste 10 Norte 0 1014.5 1.3 83
2019-10-14 07:00:00 20.7 7 Este 18 Este 0 1014.2 0.9 82
2019-10-14 06:00:00 21 7 Este 17 Nordeste 0 1013.5 0.2 76
2019-10-14 05:00:00 20.8 3 Este 10 Nordeste 0 1013.2 -0.4 82
2019-10-14 04:00:00 20.9 6 Nordeste 15 Nordeste 0 1013.3 -0.5 84
2019-10-14 03:00:00 21.1 0 Calma 8 Este 0 1013.3 -0.9 80
2019-10-14 02:00:00 21.3 6 Este 18 Nordeste 0 1013.6 -0.3 78
2019-10-14 01:00:00 21.6 2 Este 4 Sudeste 0 1013.8 0.4 77
2019-10-14 00:00:00 21.6 4 Este 9 Sudeste 0 1014.2 1.4 77
2019-10-13 23:00:00 21.4 0 Calma 7 Sudoeste 0 1013.9 1.8 69
2019-10-13 22:00:00 21.5 2 Norte 5 Sur 0 1013.4 1.3 69
2019-10-13 21:00:00 22 3 Sur 7 Sur 0 1012.8 1.1 67
2019-10-13 20:00:00 22.6 5 Sudeste 10 Sudeste 0 1012.1 0.9 64
2019-10-13 19:00:00 23.2 5 Sur 12 Sudeste 0 1012.1 0.9 62
2019-10-13 18:00:00 24.2 6 Sur 13 Sudeste 0 1011.7 0.5 59
2019-10-13 17:00:00 25.8 10 Sudeste 16 Sudeste 0 1011.2 -0.1 55
2019-10-13 16:00:00 24.7 10 Sudeste 19 Sudeste 0 1011.2 -0.3 58
2019-10-13 15:00:00 25.3 11 Sudeste 22 Sudeste 0 1011.2 -0.4 58
2019-10-13 14:00:00 25.6 8 Sudeste 17 Sudeste 0 1011.3 -0.2 56
2019-10-13 13:00:00 25.3 8 Sudeste 18 Sur 0 1011.5 0.3 57
2019-10-13 12:00:00 24.7 9 Sur 17 Sur 0 1011.6 0.9 58
2019-10-13 11:00:00 24.4 7 Sur 15 Sudoeste 0 1011.5 1.2 61
2019-10-13 10:00:00 23.5 6 Sudoeste 13 Sur 0 1011.2 1.1 63
2019-10-13 09:00:00 20.7 10 Oeste 18 Noroeste 0 1010.7 1 62
2019-10-13 08:00:00 20.5 7 Oeste 11 Sudoeste 0 1010.3 0.7 64
2019-10-13 07:00:00 20.4 4 Oeste 12 Oeste 0 1010.1 0.3 65
2019-10-13 06:00:00 20.1 8 Oeste 13 Oeste 0 1009.7 -0.4 66
2019-10-13 05:00:00 20.3 7 Oeste 13 Noroeste 0 1009.6 -1.1 67
2019-10-13 04:00:00 20.6 10 Oeste 17 Oeste 0 1009.8 -1 65
2019-10-13 03:00:00 20.7 8 Oeste 14 Oeste 0 1010.1 -0.9 64
2019-10-13 02:00:00 20.9 8 Oeste 11 Oeste 0 1010.7 -0.4 65
2019-10-13 01:00:00 21.2 4 Norte 12 Noroeste 0 1010.8 0.1 65
2019-10-13 00:00:00 21.8 6 Oeste 9 Oeste 0 1011 0.6 62
2019-10-12 23:00:00 22.2 5 Noroeste 10 Norte 0 1011.1 1.3 61
2019-10-12 22:00:00 22.6 9 Norte 15 Norte 0 1010.7 1.1 60
2019-10-12 21:00:00 22.8 6 Norte 21 Norte 0 1010.4 0.8 59
2019-10-12 20:00:00 23.4 12 Norte 25 Oeste 0 1009.8 -0.1 55
2019-10-12 19:00:00 24.3 12 Norte 22 Norte 0 1009.6 -0.4 52
2019-10-12 18:00:00 26.4 9 Sur 15 Sur 0 1009.6 -0.9 46
2019-10-12 17:00:00 26.2 7 Sur 17 Sudeste 0 1009.9 -1.3 47
2019-10-12 16:00:00 25.9 11 Este 24 Este 0 1010 -1.8 51
2019-10-12 15:00:00 25.4 14 Este 22 Este 0 1010.5 -1.9 55
2019-10-12 14:00:00 24.9 15 Este 23 Este 0 1011.2 -1.1 56
2019-10-12 13:00:00 25.3 15 Este 19 Este 0 1011.8 -0.2 54
2019-10-12 12:00:00 23.9 11 Este 19 Este 0 1012.4 0.9 57
2019-10-12 11:00:00 23.5 10 Este 15 Sudeste 0 1012.3 1 60
2019-10-12 10:00:00 23.1 4 Este 8 Sudeste 0 1012 0.9 59
2019-10-12 09:00:00 21.1 3 Este 6 Noroeste 0 1011.5 0.5 65
2019-10-12 08:00:00 20.7 3 Noroeste 8 Oeste 0 1011.3 0.4 63
2019-10-12 07:00:00 20.6 4 Oeste 7 Oeste 0 1011.1 -0.1 64
2019-10-12 06:00:00 21 5 Norte 10 Norte 0 1011 -0.5 63
2019-10-12 05:00:00 21.4 7 Norte 13 Norte 0 1010.9 -1.2 59
2019-10-12 04:00:00 22 6 Norte 21 Noroeste 0 1011.2 -1.2 57
2019-10-12 03:00:00 22.3 13 Noroeste 26 Noroeste 0 1011.5 -1.1 57
2019-10-12 02:00:00 22.4 11 Norte 24 Nordeste 0 1012.1 -0.6 56
2019-10-12 01:00:00 22.8 14 Norte 24 Norte 0 1012.4 0.1 56
2019-10-12 00:00:00 23.2 10 Norte 23 Norte 0 1012.6 1.2 56
2019-10-11 23:00:00 23.3 10 Noroeste 30 Noroeste 0 1012.7 1.8 58
2019-10-11 22:00:00 23.3 11 Noroeste 20 Noroeste 0 1012.3 1.9 57
2019-10-11 21:00:00 23.2 12 Norte 23 Norte 0 1011.4 1.2 59
2019-10-11 20:00:00 23.6 10 Norte 23 Norte 0 1010.9 0.6 58
2019-10-11 19:00:00 24.5 12 Noroeste 32 Oeste 0 1010.4 0 53
2019-10-11 18:00:00 26.4 16 Noroeste 30 Noroeste 0 1010.2 -0.5 44
2019-10-11 17:00:00 26.9 12 Noroeste 30 Nordeste 0 1010.3 -1 45
2019-10-11 16:00:00 27.2 17 Norte 30 Norte 0 1010.4 -1.8 46
2019-10-11 15:00:00 26.8 14 Noroeste 32 Nordeste 0 1010.7 -2.1 45
2019-10-11 14:00:00 26.4 12 Nordeste 27 Nordeste 0 1011.3 -1.6 47
2019-10-11 13:00:00 26 15 Norte 28 Norte 0 1012.2 -0.3 50
2019-10-11 12:00:00 24.7 11 Este 21 Este 0 1012.8 0.9 59
2019-10-11 11:00:00 24.5 12 Este 19 Este 0 1012.9 1.6 66
2019-10-11 10:00:00 24.5 7 Este 13 Sudeste 0 1012.5 1.6 60
2019-10-11 09:00:00 22.3 2 Sudoeste 5 Sudoeste 0 1011.9 1 67
2019-10-11 08:00:00 21.3 3 Sudeste 19 Oeste 0 1011.3 0.4 69
2019-10-11 07:00:00 21.4 8 Norte 16 Norte 0 1010.9 -0.1 67
2019-10-11 06:00:00 21.3 7 Noroeste 17 Oeste 0 1010.9 -0.4 71
2019-10-11 05:00:00 21.6 9 Oeste 14 Oeste 0 1010.9 -0.8 69
2019-10-11 04:00:00 21.8 6 Norte 17 Norte 0 1011 -0.9 63
2019-10-11 03:00:00 21.7 5 Noroeste 13 Norte 0 1011.3 -0.8 65
2019-10-11 02:00:00 22.2 8 Noroeste 18 Norte 0 1011.7 -0.3 61
2019-10-11 01:00:00 22.2 5 Noroeste 13 Noroeste 0 1011.9 0.3 61
2019-10-11 00:00:00 22.8 6 Norte 15 Nordeste 0 1012.1 1 60
2019-10-10 23:00:00 23.1 9 Norte 18 Norte 0 1012 1.6 62
2019-10-10 22:00:00 23.3 9 Norte 18 Norte 0 1011.6 1.5 60
2019-10-10 21:00:00 23.5 8 Nordeste 17 Norte 0 1011.1 1.4 59
2019-10-10 20:00:00 24 6 Norte 23 Norte 0 1010.4 0.7 57
2019-10-10 19:00:00 24.8 13 Nordeste 27 Nordeste 0 1010.1 0.1 56
2019-10-10 18:00:00 26.2 14 Nordeste 30 Norte 0 1009.7 -0.2 53
2019-10-10 17:00:00 26 13 Norte 41 Este 0 1009.7 -0.9 53
2019-10-10 16:00:00 26.1 22 Este 37 Este 0 1010 -1.7 63
2019-10-10 15:00:00 26.7 13 Este 34 Este 0 1009.9 -2.2 52
2019-10-10 14:00:00 27.1 18 Este 33 Este 0 1010.6 -1.5 54
2019-10-10 13:00:00 27.7 14 Nordeste 29 Nordeste 0 1011.7 0 47
2019-10-10 12:00:00 26.8 15 Nordeste 27 Nordeste 0 1012.1 0.8 50
2019-10-10 11:00:00 26.1 10 Norte 23 Norte 0 1012.1 1.2 51
2019-10-10 10:00:00 25.2 7 Nordeste 15 Nordeste 0 1011.7 1 57
2019-10-10 09:00:00 22.2 3 Noroeste 9 Oeste 0 1011.3 0.7 66
2019-10-10 08:00:00 21.4 5 Noroeste 11 Oeste 0 1010.9 0.5 66
2019-10-10 07:00:00 21.6 4 Noroeste 11 Norte 0 1010.7 -0.1 65
2019-10-10 06:00:00 22.3 8 Nordeste 18 Nordeste 0 1010.6 -0.7 67
2019-10-10 05:00:00 21.6 5 Norte 8 Norte 0 1010.4 -1.5 70
2019-10-10 04:00:00 21.5 3 Oeste 11 Oeste 0 1010.8 -1.8 67
2019-10-10 03:00:00 21.7 4 Noroeste 8 Noroeste 0 1011.3 -1.1 67
2019-10-10 02:00:00 22.1 3 Oeste 10 Norte 0 1011.9 -0.4 66
2019-10-10 01:00:00 22 6 Norte 10 Este 0 1012.6 0.6 67
2019-10-10 00:00:00 22.3 0 Calma 10 Nordeste 0 1012.4 0.5 66
2019-10-09 23:00:00 22.6 3 Nordeste 13 Nordeste 0 1012.3 1 63
2019-10-09 22:00:00 22.9 5 Este 13 Este 0 1012 1.4 63
2019-10-09 21:00:00 23.5 7 Este 15 Nordeste 0 1011.9 1.3 60
2019-10-09 20:00:00 24 6 Nordeste 19 Nordeste 0 1011.3 1 56
2019-10-09 19:00:00 25.3 8 Norte 19 Nordeste 0 1010.6 0 51
2019-10-09 18:00:00 27.1 9 Nordeste 21 Nordeste 0 1010.6 0 46
2019-10-09 17:00:00 27.7 12 Nordeste 24 Nordeste 0 1010.3 -0.7 45
2019-10-09 16:00:00 28.1 6 Este 27 Este 0 1010.6 -0.7 46
2019-10-09 15:00:00 27.1 21 Este 38 Este 0 1010.6 -1.1 51
2019-10-09 14:00:00 26.4 26 Este 43 Este 0 1011 -0.8 55
2019-10-09 13:00:00 27.7 13 Nordeste 25 Nordeste 0 1011.3 -0.4 45
2019-10-09 12:00:00 26.9 13 Este 22 Nordeste 0 1011.7 0.3 47
2019-10-09 11:00:00 25.7 5 Este 15 Este 0 1011.8 0.8 53
2019-10-09 10:00:00 24.6 4 Este 11 Sudeste 0 1011.7 0.8 56
2019-10-09 09:00:00 21.8 6 Sudoeste 10 Sudoeste 0 1011.4 0.7 64
2019-10-09 08:00:00 20.2 3 Sur 7 Oeste 0 1011 0.3 70
2019-10-09 07:00:00 20.2 2 Nordeste 5 Oeste 0 1010.9 -0.1 70
2019-10-09 06:00:00 20.5 5 Oeste 9 Sudoeste 0 1010.7 -1 68
2019-10-09 05:00:00 20.5 2 Sur 7 Oeste 0 1010.7 -1.2 68
2019-10-09 04:00:00 20.7 2 Sudeste 7 Sur 0 1011 -0.9 69
2019-10-09 03:00:00 21 0 Calma 7 Sur 0 1011.7 -0.5 67
2019-10-09 02:00:00 21.5 5 Sudoeste 8 Sudoeste 0 1011.9 -0.3 65
2019-10-09 01:00:00 21.8 3 Oeste 8 Oeste 0 1011.9 0.1 65
2019-10-09 00:00:00 22.3 5 Oeste 13 Oeste 0 1012.2 1.1 62
2019-10-08 23:00:00 22.6 5 Sudoeste 19 Noroeste 0 1012.2 1.5 61
2019-10-08 22:00:00 22.9 12 Oeste 21 Oeste 0 1011.8 1.3 61
2019-10-08 21:00:00 23.2 14 Oeste 24 Noroeste 0 1011.1 0.6 60
2019-10-08 20:00:00 23.9 6 Sudeste 17 Este 0 1010.7 0.6 62
2019-10-08 19:00:00 24.7 10 Este 21 Sudeste 0 1010.5 -0.3 61
2019-10-08 18:00:00 26.4 12 Sudeste 26 Sudeste 0 1010.5 -0.1 56
2019-10-08 17:00:00 26.8 12 Sudeste 27 Este 0 1010.1 -0.9 58
2019-10-08 16:00:00 25.7 14 Este 33 Este 0 1010.8 -0.7 63
2019-10-08 15:00:00 26.1 13 Este 29 Este 0 1010.6 -1.2 61
2019-10-08 14:00:00 26 15 Este 27 Sudeste 0 1011 -1.1 61
2019-10-08 13:00:00 25.5 19 Este 29 Este 0 1011.5 -0.6 62
2019-10-08 12:00:00 27.2 8 Sudeste 15 Sudeste 0 1011.8 0.2 52
2019-10-08 11:00:00 25.3 8 Sudeste 13 Sudeste 0 1012.1 0.9 58
2019-10-08 10:00:00 24.4 6 Sudeste 11 Sudeste 0 1012.1 1.1 62
2019-10-08 09:00:00 21.5 3 Oeste 5 Oeste 0 1011.6 0.8 74
2019-10-08 08:00:00 20.3 5 Oeste 7 Oeste 0 1011.2 0.4 76
2019-10-08 07:00:00 20.3 4 Oeste 8 Oeste 0 1011 0.3 75
2019-10-08 06:00:00 20.6 6 Oeste 12 Oeste 0 1010.8 -0.5 73
2019-10-08 05:00:00 20.9 2 Noroeste 12 Oeste 0 1010.8 -0.7 74
2019-10-08 04:00:00 20.9 3 Noroeste 10 Oeste 0 1010.7 -1.1 73
2019-10-08 03:00:00 21 4 Oeste 12 Oeste 0 1011.3 -0.6 72
2019-10-08 02:00:00 21.5 7 Oeste 10 Oeste 0 1011.5 -0.5 70
2019-10-08 01:00:00 21.8 3 Oeste 7 Oeste 0 1011.8 0.3 69
2019-10-08 00:00:00 22 3 Sur 9 Sur 0 1011.9 1 71
2019-10-07 23:00:00 22.5 5 Sur 10 Sudeste 0 1012 1.5 70
2019-10-07 22:00:00 23 5 Sudeste 17 Oeste 0 1011.5 1.2 70
2019-10-07 21:00:00 23.4 10 Oeste 15 Oeste 0 1010.9 0.5 65
2019-10-07 20:00:00 23.9 8 Sudeste 21 Sudeste 0 1010.5 -0.1 66
2019-10-07 19:00:00 24.6 9 Este 27 Este 0 1010.3 -0.4 63
2019-10-07 18:00:00 25.7 16 Este 27 Este 0 1010.4 -0.9 63
2019-10-07 17:00:00 26.4 13 Este 32 Este 0 1010.6 -1.4 62
2019-10-07 16:00:00 25.8 13 Este 32 Este 0 1010.7 -2.2 64
2019-10-07 15:00:00 25.7 16 Este 31 Este 0 1011.3 -1.8 64
2019-10-07 14:00:00 25.7 17 Este 30 Sudeste 0 1012 -0.9 62
2019-10-07 13:00:00 25.5 15 Este 34 Este 0 1012.9 0.1 62
2019-10-07 12:00:00 25.5 15 Este 28 Este 0 1013.1 1 62
2019-10-07 11:00:00 25 13 Este 25 Este 0 1012.9 1.2 61
2019-10-07 10:00:00 24.3 6 Este 9 Sudeste 0 1012.8 1.4 62
2019-10-07 09:00:00 21.4 5 Oeste 9 Oeste 0 1012.1 1 71
2019-10-07 08:00:00 20.2 4 Oeste 10 Noroeste 0 1011.7 0.8 73
2019-10-07 07:00:00 20.2 4 Oeste 7 Oeste 0 1011.4 0.3 74
2019-10-07 06:00:00 20.3 6 Oeste 8 Noroeste 0 1011.1 -0.4 73
2019-10-07 05:00:00 20.3 3 Oeste 7 Oeste 0 1010.9 -1.2 73
2019-10-07 04:00:00 20.5 3 Oeste 7 Oeste 0 1011.1 -1.7 73
2019-10-07 03:00:00 21.1 6 Oeste 10 Oeste 0 1011.5 -1.9 70
2019-10-07 02:00:00 21.5 5 Sudoeste 10 Sudoeste 0 1012.1 -1.3 71
2019-10-07 01:00:00 21.9 3 Noroeste 13 Este 0 1012.8 -0.5 68
2019-10-07 00:00:00 22.2 5 Nordeste 15 Este 0 1013.4 0.4 68
2019-10-06 23:00:00 22.5 8 Este 16 Este 0 1013.4 0.8 69
2019-10-06 22:00:00 22.7 8 Nordeste 19 Este 0 1013.3 0.9 67
2019-10-06 21:00:00 22.9 9 Nordeste 17 Nordeste 0 1013 0.9 66
2019-10-06 20:00:00 23.3 11 Nordeste 23 Nordeste 0 1012.6 0.6 65
2019-10-06 19:00:00 24.3 13 Nordeste 23 Nordeste 0 1012.4 0.1 61
2019-10-06 18:00:00 25.7 15 Nordeste 34 Nordeste 0 1012.1 -0.5 54
2019-10-06 17:00:00 26.1 14 Nordeste 37 Nordeste 0 1012 -1.1 57
2019-10-06 16:00:00 26 18 Este 37 Nordeste 0 1012.3 -1.1 57
2019-10-06 15:00:00 26.5 16 Este 33 Nordeste 0 1012.6 -0.8 53
2019-10-06 14:00:00 26.3 15 Nordeste 36 Nordeste 0 1013.1 -0.5 55
2019-10-06 13:00:00 25.9 17 Este 32 Este 0 1013.4 -0.3 57
2019-10-06 12:00:00 25.8 15 Este 28 Este 0 1013.4 0.3 58
2019-10-06 11:00:00 24.6 11 Este 19 Este 0 1013.6 0.9 60
2019-10-06 10:00:00 23.5 8 Nordeste 18 Nordeste 0 1013.7 1.4 66
2019-10-06 09:00:00 22.3 10 Nordeste 19 Nordeste 0 1013.1 1 70
2019-10-06 08:00:00 22.1 6 Nordeste 17 Nordeste 0 1012.7 0.6 68
2019-10-06 07:00:00 22.4 6 Nordeste 15 Norte 0 1012.3 -0.1 70
2019-10-06 06:00:00 22.5 7 Nordeste 20 Nordeste 0 1012.1 -0.7 69
2019-10-06 05:00:00 22.5 6 Nordeste 19 Este 0 1012.1 -0.9 70
2019-10-06 04:00:00 22.5 6 Nordeste 31 Norte 0 1012.4 -0.8 71
2019-10-06 03:00:00 22.7 10 Norte 21 Nordeste 0 1012.8 -0.5 69
2019-10-06 02:00:00 22.6 12 Norte 23 Norte 0 1013 -0.4 70
2019-10-06 01:00:00 22.6 6 Nordeste 21 Nordeste 0 1013.2 0.2 69
2019-10-06 00:00:00 22.9 8 Nordeste 25 Norte 0 1013.3 0.9 70
2019-10-05 23:00:00 23 8 Norte 24 Norte 0 1013.4 1.2 69
2019-10-05 22:00:00 23.1 13 Norte 30 Norte 0 1013 1.2 69
2019-10-05 21:00:00 23.4 13 Norte 24 Nordeste 0 1012.4 1 66
2019-10-05 20:00:00 23.9 10 Norte 29 Norte 0 1012.2 1 66
2019-10-05 19:00:00 25 13 Norte 32 Norte 0 1011.8 0.6 63
2019-10-05 18:00:00 26.3 11 Nordeste 27 Nordeste 0 1011.4 -0.3 66
2019-10-05 17:00:00 27.1 15 Nordeste 32 Norte 0 1011.2 -1.2 59
2019-10-05 16:00:00 27 21 Nordeste 40 Este 0 1011.2 -1.6 60
2019-10-05 15:00:00 26.8 15 Nordeste 37 Nordeste 0 1011.7 -1.2 61
2019-10-05 14:00:00 26.8 13 Nordeste 41 Nordeste 0 1012.4 -0.5 61
2019-10-05 13:00:00 26.9 15 Nordeste 32 Nordeste 0 1012.8 0.3 63
2019-10-05 12:00:00 26 10 Nordeste 24 Nordeste 0 1012.9 0.8 65
2019-10-05 11:00:00 24.8 8 Nordeste 27 Nordeste 0 1012.9 1.3 67
2019-10-05 10:00:00 24.3 9 Nordeste 28 Nordeste 0 1012.5 1.2 70
2019-10-05 09:00:00 23.7 10 Nordeste 23 Nordeste 0 1012.1 1.1 71
2019-10-05 08:00:00 23.4 10 Nordeste 25 Nordeste 0 1011.6 0.8 72
2019-10-05 07:00:00 23.3 8 Nordeste 23 Nordeste 0 1011.3 0.6 72
2019-10-05 06:00:00 23.1 7 Nordeste 19 Nordeste 0 1011 0.1 71
2019-10-05 05:00:00 23.1 9 Nordeste 19 Nordeste 0 1010.8 -0.1 69
2019-10-05 04:00:00 22.9 8 Nordeste 16 Nordeste 0 1010.7 -0.4 67
2019-10-05 03:00:00 22.8 7 Sur 20 Oeste 0 1010.9 -0.7 66
2019-10-05 02:00:00 23 4 Noroeste 19 Oeste 0 1010.9 -0.8 63
2019-10-05 01:00:00 23.2 3 Oeste 14 Oeste 0 1011.1 -0.5 61
2019-10-05 00:00:00 23.5 6 Oeste 21 Oeste 0 1011.6 0.1 61
2019-10-04 23:00:00 24 10 Oeste 33 Oeste 0 1011.7 0.7 59
2019-10-04 22:00:00 23.9 17 Oeste 35 Oeste 0 1011.6 0.8 62
2019-10-04 21:00:00 24.4 13 Oeste 35 Noroeste 0 1011.5 1.2 59
2019-10-04 20:00:00 25.6 11 Oeste 26 Noroeste 0 1011 0.9 56
2019-10-04 19:00:00 27.5 9 Sur 24 Sudoeste 0 1010.8 0.5 47
2019-10-04 18:00:00 29.8 13 Este 24 Este 0 1010.3 -0.5 38
2019-10-04 17:00:00 30.7 10 Este 20 Sudeste 0 1010.1 -1.6 41
2019-10-04 16:00:00 31 14 Sudeste 23 Sudeste 0 1010.3 -2.3 46
2019-10-04 15:00:00 30.3 10 Sudeste 18 Sudeste 0 1010.8 -2.1 45
2019-10-04 14:00:00 29.5 9 Sudeste 23 Sudeste 0 1011.7 -1.4 48
2019-10-04 13:00:00 30.2 9 Sudeste 22 Este 0 1012.6 -0.5 44
2019-10-04 12:00:00 29.3 10 Este 19 Este 0 1012.9 0.2 44
2019-10-04 11:00:00 27.6 8 Este 13 Sudeste 0 1013.1 0.7 49
2019-10-04 10:00:00 24.7 4 Sudeste 10 Sur 0 1013.1 1 59
2019-10-04 09:00:00 22.9 3 Oeste 7 Noroeste 0 1012.7 0.7 64
2019-10-04 08:00:00 22.2 2 Oeste 13 Sudoeste 0 1012.4 0.1 66
2019-10-04 07:00:00 22 3 Norte 9 Sur 0 1012.1 -0.4 70
2019-10-04 06:00:00 22.1 4 Oeste 10 Sudoeste 0 1012 -0.9 75
2019-10-04 05:00:00 21.8 2 Sudoeste 5 Sudoeste 0 1012.3 -1 83
2019-10-04 04:00:00 21.8 0 Calma 6 Este 0 1012.5 -1.3 85
2019-10-04 03:00:00 22.2 2 Sudeste 14 Sur 0 1012.9 -1 83
2019-10-04 02:00:00 22.5 3 Sudeste 13 Sudoeste 0 1013.3 -1 79
2019-10-04 01:00:00 22.5 6 Oeste 14 Sudoeste 0 1013.8 -0.2 81
2019-10-04 00:00:00 22.8 6 Sudoeste 12 Sudoeste 0 1013.9 0.2 78
2019-10-03 23:00:00 22.8 4 Sudoeste 7 Oeste 0 1014.3 0.8 77
2019-10-03 22:00:00 23.2 4 Este 12 Este 0 1014 0.6 75
2019-10-03 21:00:00 23.5 6 Este 19 Nordeste 0 1013.7 -0.1 75
2019-10-03 20:00:00 23.8 9 Este 21 Este 0 1013.5 -0.4 74
2019-10-03 19:00:00 24.8 9 Este 23 Nordeste 0 1013.4 -0.7 70
2019-10-03 18:00:00 26.1 12 Este 23 Este 0 1013.8 -0.6 67
2019-10-03 17:00:00 26.6 14 Este 24 Este 0 1013.9 -1.3 65
2019-10-03 16:00:00 26.5 14 Este 30 Este 0 1014.1 -1.8 64
2019-10-03 15:00:00 26.4 15 Este 26 Este 0 1014.4 -1.7 65
2019-10-03 14:00:00 26.3 12 Este 30 Este 0 1015.2 -1.1 67
2019-10-03 13:00:00 25.5 13 Este 27 Este 0 1015.9 0 71
2019-10-03 12:00:00 25.7 12 Este 28 Este 0 1016.1 0.6 69
2019-10-03 11:00:00 25.2 14 Este 28 Nordeste 0 1016.3 1.3 72
2019-10-03 10:00:00 25.3 11 Este 19 Este 0 1015.9 1.4 69
2019-10-03 09:00:00 23.2 0 Calma 10 Sudoeste 0 1015.5 1.5 55
2019-10-03 08:00:00 21.8 2 Noroeste 12 Noroeste 0 1015 0.9 51
2019-10-03 07:00:00 21.8 4 Oeste 9 Oeste 0 1014.5 0.2 53
2019-10-03 06:00:00 22.3 7 Oeste 9 Oeste 0 1014 -0.5 50
2019-10-03 05:00:00 21.7 4 Oeste 8 Oeste 0 1014.1 -0.4 64
2019-10-03 04:00:00 21.8 2 Oeste 6 Oeste 0 1014.3 -0.1 68
2019-10-03 03:00:00 22.1 5 Oeste 6 Oeste 0 1014.5 0.2 60
2019-10-03 02:00:00 22.3 2 Noroeste 12 Sur 0 1014.5 0.5 66
2019-10-03 01:00:00 22.8 5 Sur 17 Oeste 0 1014.4 0.8 81
2019-10-03 00:00:00 23.3 8 Sudoeste 14 Sudoeste 0 1014.3 1.1 79
2019-10-02 23:00:00 23.3 4 Sudeste 6 Sur 0 1014 1.3 78
2019-10-02 22:00:00 23.4 4 Sur 7 Este 0 1013.6 0.9 79
2019-10-02 21:00:00 23.5 5 Este 7 Este 0 1013.2 0.4 78
2019-10-02 20:00:00 24.1 4 Sudeste 11 Este 0 1012.7 -0.2 75
2019-10-02 19:00:00 24.9 6 Este 16 Este 0 1012.7 -0.3 76
2019-10-02 18:00:00 25.8 7 Este 21 Este 0 1012.8 -0.6 74
2019-10-02 17:00:00 25.1 14 Este 24 Este 0 1012.9 -0.5 78
2019-10-02 16:00:00 26.2 9 Este 21 Nordeste 0 1013 -0.7 74
2019-10-02 15:00:00 25.6 13 Este 24 Este 0 1013.4 -0.6 76
2019-10-02 14:00:00 25.4 13 Este 22 Este 0 1013.4 -0.6 74
2019-10-02 13:00:00 26 8 Este 14 Este 0 1013.7 0.1 72
2019-10-02 12:00:00 25.4 6 Este 18 Este 0 1014 1.2 73
2019-10-02 11:00:00 24.7 11 Este 17 Este 0 1014 1.5 74
2019-10-02 10:00:00 24.9 8 Este 13 Este 0 1013.6 1.5 73
2019-10-02 09:00:00 22.8 7 Sudoeste 16 Oeste 0 1012.8 1 81
2019-10-02 08:00:00 21.9 6 Oeste 12 Oeste 0 1012.5 0.7 83
2019-10-02 07:00:00 21.8 6 Sudoeste 9 Sudoeste 0 1012.1 0 84
2019-10-02 06:00:00 22 5 Oeste 9 Oeste 0 1011.8 -0.6 83
2019-10-02 05:00:00 22 5 Sudoeste 7 Sudoeste 0 1011.8 -0.9 81
2019-10-02 04:00:00 22 2 Este 7 Oeste 0 1012.1 -1 79
2019-10-02 03:00:00 22.7 6 Sudoeste 13 Sur 0 1012.4 -0.8 76
2019-10-02 02:00:00 22.6 5 Sudoeste 12 Sudoeste 0 1012.7 -0.5 76
2019-10-02 01:00:00 22.7 3 Sur 11 Sudoeste 0 1013.1 0.2 79
2019-10-02 00:00:00 23.1 7 Sudoeste 11 Sudoeste 0 1013.2 0.9 80
2019-10-01 23:00:00 22.9 4 Este 9 Este 0 1013.2 1.4 80
2019-10-01 22:00:00 23.6 6 Nordeste 11 Este 0 1012.9 0.9 78
2019-10-01 21:00:00 24.2 5 Este 10 Sudoeste 0 1012.3 0.6 74
2019-10-01 20:00:00 24.9 9 Sur 11 Sudoeste 0 1011.8 0 68
2019-10-01 19:00:00 26.3 3 Sur 15 Este 0 1012 0.2 59
2019-10-01 18:00:00 27.1 6 Sudeste 18 Este 0 1011.7 -0.5 57
2019-10-01 17:00:00 26.3 10 Este 21 Este 0 1011.8 -0.5 68
2019-10-01 16:00:00 26.7 14 Este 31 Este 0 1011.8 -0.5 66
2019-10-01 15:00:00 28.2 10 Este 27 Este 0 1012.2 -0.4 54
2019-10-01 14:00:00 30.2 12 Este 23 Este 0 1012.3 0.1 44
2019-10-01 13:00:00 31 8 Sur 23 Sudoeste 0 1012.3 0.2 41
2019-10-01 12:00:00 30.6 7 Sudoeste 15 Sudoeste 0 1012.6 1 38
2019-10-01 11:00:00 30.6 4 Sur 8 Sur 0 1012.2 0.9 30
2019-10-01 10:00:00 27.4 2 Sudeste 5 Noroeste 0 1012.1 1.7 32
2019-10-01 09:00:00 23.6 3 Norte 16 Oeste 0 1011.6 1.5 41
2019-10-01 08:00:00 22.4 5 Sudoeste 13 Oeste 0 1011.3 1.5 50
2019-10-01 07:00:00 22.6 9 Oeste 19 Sudoeste 0 1010.4 0.4 51
2019-10-01 06:00:00 22.3 3 Sudoeste 9 Noroeste 0 1010.1 -0.3 35
2019-10-01 05:00:00 22.7 5 Oeste 8 Noroeste 0 1009.8 -1.1 32
2019-10-01 04:00:00 22.5 3 Oeste 7 Oeste 0 1010 -1.1 40
2019-10-01 03:00:00 22.5 5 Oeste 7 Oeste 0 1010.4 -0.8 54
2019-10-01 02:00:00 22.8 3 Norte 17 Sudoeste 0 1010.9 -0.1 73
2019-10-01 01:00:00 23.5 10 Sudoeste 17 Sudoeste 0 1011.1 0.6 75
2019-10-01 00:00:00 23.9 8 Sudoeste 17 Sudoeste 0 1011.2 1.8 71
2019-09-30 23:00:00 24.2 10 Sudoeste 17 Sur 0 1011 2.5 73
2019-09-30 22:00:00 25 7 Sur 15 Sur 0 1010.5 2.3 70
2019-09-30 21:00:00 27 5 Oeste 17 Oeste 0 1009.4 1.3 44
2019-09-30 20:00:00 28 13 Oeste 30 Oeste 0 1008.5 0 45
2019-09-30 19:00:00 29.1 14 Oeste 30 Noroeste 0 1008.2 -0.2 48
2019-09-30 18:00:00 31.3 17 Oeste 31 Oeste 0 1008.1 -0.5 44
2019-09-30 17:00:00 30.2 9 Sudeste 14 Este 0 1008.5 -0.8 47
2019-09-30 16:00:00 31.2 11 Sur 19 Sur 0 1008.4 -1.2 46
2019-09-30 15:00:00 29.8 7 Sudoeste 19 Sur 0 1008.6 -1.4 51
2019-09-30 14:00:00 29.1 12 Sur 20 Sur 0 1009.3 -0.8 54
2019-09-30 13:00:00 27.5 8 Sudoeste 26 Sur 0 1009.6 -0.5 59
2019-09-30 12:00:00 28.3 7 Sur 14 Sur 0 1010 0.7 59
2019-09-30 11:00:00 26.7 6 Sudeste 13 Este 0 1010.1 1.2 64
2019-09-30 10:00:00 25.3 4 Este 6 Este 0 1010.1 1.5 70
2019-09-30 09:00:00 21.9 3 Oeste 7 Sudeste 0 1009.3 0.7 80
2019-09-30 08:00:00 21.4 3 Oeste 5 Oeste 0 1008.9 0 81
2019-09-30 07:00:00 21.2 3 Norte 6 Sur 0 1008.6 -0.6 87
2019-09-30 06:00:00 21.5 4 Sur 6 Oeste 0 1008.6 -1.2 85
2019-09-30 05:00:00 21.7 3 Sur 6 Sur 0 1008.9 -1.3 85
2019-09-30 04:00:00 22.1 2 Norte 7 Este 0 1009.2 -0.8 85
2019-09-30 03:00:00 22.4 5 Nordeste 12 Sur 0 1009.8 -0.5 84
2019-09-30 02:00:00 22.7 6 Sudoeste 12 Sudoeste 0 1010.2 -0.3 83
2019-09-30 01:00:00 22.4 4 Sur 9 Sudoeste 0 1010 -0.2 86
2019-09-30 00:00:00 23 6 Sudoeste 12 Sudoeste 0 1010.3 0.6 84
2019-09-29 23:00:00 23.1 5 Sudoeste 8 Sudoeste 0 1010.5 1 82
2019-09-29 22:00:00 23.4 6 Sur 12 Sur 0 1010.2 0.7 80
2019-09-29 21:00:00 24.1 4 Nordeste 10 Sur 0 1009.7 0 75
2019-09-29 20:00:00 24.2 6 Sur 20 Sur 0 1009.5 -0.4 73
2019-09-29 19:00:00 25.5 12 Sur 19 Sudoeste 0 1009.5 -1.3 68
2019-09-29 18:00:00 27.2 9 Sudoeste 14 Sur 0 1009.7 -1.7 61
2019-09-29 17:00:00 27.1 6 Sudeste 21 Este 0 1009.9 -2 61
2019-09-29 16:00:00 26.2 13 Este 23 Este 0 1010.8 -1.9 66
2019-09-29 15:00:00 25.7 18 Este 31 Este 0 1011.4 -1.7 68
2019-09-29 14:00:00 26 15 Este 30 Este 0 1011.9 -0.8 66
2019-09-29 13:00:00 25.5 14 Este 31 Este 0 1012.7 0.5 66
2019-09-29 12:00:00 25.2 14 Este 28 Este 0 1013.1 1.1 67
2019-09-29 11:00:00 24.8 10 Este 18 Este 0 1012.7 1 65
2019-09-29 10:00:00 24.4 8 Este 14 Este 0 1012.2 1.1 66
2019-09-29 09:00:00 21.8 4 Noroeste 5 Noroeste 0 1012 1.2 74
2019-09-29 08:00:00 21.2 3 Oeste 7 Sur 0 1011.7 0.8 77
2019-09-29 07:00:00 21.1 3 Sudoeste 6 Oeste 0 1011.1 -0.3 78
2019-09-29 06:00:00 21.1 2 Sudoeste 4 Oeste 0 1010.8 -1 78
2019-09-29 05:00:00 21.3 3 Oeste 4 Oeste 0 1010.9 -1.5 77
2019-09-29 04:00:00 21.4 2 Norte 6 Oeste 0 1011.4 -1.3 76
2019-09-29 03:00:00 21.5 2 Este 6 Sudoeste 0 1011.8 -1.1 74
2019-09-29 02:00:00 21.7 2 Sudeste 6 Sur 0 1012.4 -0.5 77
2019-09-29 01:00:00 22 2 Este 5 Este 0 1012.7 -0.1 75
2019-09-29 00:00:00 22.3 2 Este 11 Sudeste 0 1012.9 0.3 73
2019-09-28 23:00:00 22.8 4 Sudeste 10 Este 0 1012.9 0.7 70
2019-09-28 22:00:00 23 5 Este 18 Este 0 1012.8 0.6 69
2019-09-28 21:00:00 23.2 12 Este 21 Este 0 1012.6 0.4 68
2019-09-28 20:00:00 23.8 10 Este 29 Este 0 1012.2 0 69
2019-09-28 19:00:00 25 15 Este 28 Este 0 1012.2 -0.2 62
2019-09-28 18:00:00 25.6 17 Este 35 Este 0 1012.2 -0.6 61
2019-09-28 17:00:00 26 16 Este 41 Este 0 1012.2 -1.3 59
2019-09-28 16:00:00 26.1 27 Este 41 Este 0 1012.4 -1.7 60
2019-09-28 15:00:00 25.6 23 Este 40 Este 0 1012.8 -1.5 64
2019-09-28 14:00:00 25.7 17 Este 39 Este 0 1013.5 -0.8 61
2019-09-28 13:00:00 25.3 21 Este 38 Este 0 1014.1 0.4 63
2019-09-28 12:00:00 25.8 20 Este 35 Este 0 1014.3 1.1 60
2019-09-28 11:00:00 25.9 12 Este 23 Este 0 1014.3 1.4 57
2019-09-28 10:00:00 24.5 5 Sur 9 Sudeste 0 1013.7 0.9 64
2019-09-28 09:00:00 22.1 5 Oeste 11 Oeste 0 1013.2 0.6 68
2019-09-28 08:00:00 21.1 4 Oeste 8 Oeste 0 1012.9 0.3 70
2019-09-28 07:00:00 21.4 6 Sudoeste 9 Sudoeste 0 1012.8 0 72
2019-09-28 06:00:00 21.4 5 Oeste 9 Oeste 0 1012.6 -0.8 71
2019-09-28 05:00:00 21.8 5 Sudoeste 11 Sur 0 1012.6 -1.1 71
2019-09-28 04:00:00 22 3 Sudoeste 7 Este 0 1012.8 -1.4 69
2019-09-28 03:00:00 22 5 Sudoeste 7 Sudoeste 0 1013.4 -1.5 70
2019-09-28 02:00:00 22.3 3 Nordeste 13 Nordeste 0 1013.7 -1 69
2019-09-28 01:00:00 22.6 6 Nordeste 15 Este 0 1014.2 0.1 68
2019-09-28 00:00:00 22.8 5 Este 17 Nordeste 0 1014.9 1.2 68
2019-09-27 23:00:00 23.1 10 Este 20 Nordeste 0 1014.7 1.5 68
2019-09-27 22:00:00 23.4 9 Este 23 Nordeste 0 1014.1 1.1 64
2019-09-27 21:00:00 23.7 10 Este 22 Este 0 1013.7 1 65
2019-09-27 20:00:00 24.3 13 Este 24 Este 0 1013.2 0.7 63
2019-09-27 19:00:00 25.7 14 Este 23 Este 0 1013 0.3 54
2019-09-27 18:00:00 27.6 13 Nordeste 26 Nordeste 0 1012.7 -0.4 48
2019-09-27 17:00:00 28.2 9 Este 24 Este 0 1012.5 -1.1 49
2019-09-27 16:00:00 29.3 10 Este 21 Este 0 1012.7 -1.5 47
2019-09-27 15:00:00 28.2 13 Este 40 Este 0 1013.1 -1.6 49
2019-09-27 14:00:00 27.1 24 Este 42 Este 0 1013.6 -1.2 55
2019-09-27 13:00:00 27.7 14 Nordeste 29 Este 0 1014.2 -0.3 51
2019-09-27 12:00:00 27.3 13 Nordeste 31 Nordeste 0 1014.7 0.4 52
2019-09-27 11:00:00 26.6 12 Este 24 Nordeste 0 1014.8 0.6 51
2019-09-27 10:00:00 25.4 8 Nordeste 18 Nordeste 0 1014.5 0.9 59
2019-09-27 09:00:00 22.7 0 Calma 5 Noroeste 0 1014.3 0.9 68
2019-09-27 08:00:00 21.5 4 Oeste 7 Oeste 0 1014.2 0.5 71
2019-09-27 07:00:00 21.4 4 Oeste 6 Sudoeste 0 1013.6 -0.2 72
2019-09-27 06:00:00 21.3 3 Sur 4 Sur 0 1013.4 -0.8 70
2019-09-27 05:00:00 21.7 3 Noroeste 9 Oeste 0 1013.7 -1 68
2019-09-27 04:00:00 21.8 4 Sudoeste 7 Sudoeste 0 1013.8 -1.1 68
2019-09-27 03:00:00 22.2 6 Oeste 9 Oeste 0 1014.2 -0.7 66
2019-09-27 02:00:00 22.5 6 Sudoeste 9 Oeste 0 1014.7 -0.2 67
2019-09-27 01:00:00 22.8 5 Nordeste 15 Este 0 1014.9 0.5 65
2019-09-27 00:00:00 23.1 7 Nordeste 14 Nordeste 0 1014.9 1.1 63
2019-09-26 23:00:00 23.4 8 Este 15 Este 0 1014.9 1.8 64
2019-09-26 22:00:00 23.5 8 Este 18 Nordeste 0 1014.4 1.7 68
2019-09-26 21:00:00 24.1 3 Nordeste 18 Norte 0 1013.8 1.5 59
2019-09-26 20:00:00 24.7 7 Nordeste 20 Nordeste 0 1013.1 0.8 55
2019-09-26 19:00:00 25.8 11 Este 24 Nordeste 0 1012.7 0.3 54
2019-09-26 18:00:00 26.9 14 Este 41 Este 0 1012.3 -0.3 53
2019-09-26 17:00:00 26.5 25 Este 41 Este 0 1012.3 -1.1 56
2019-09-26 16:00:00 26.9 23 Este 43 Este 0 1012.4 -1.8 59
2019-09-26 15:00:00 26.5 23 Este 43 Este 0 1012.6 -1.8 59
2019-09-26 14:00:00 26.3 21 Este 42 Este 0 1013.4 -1.1 62
2019-09-26 13:00:00 26.5 18 Este 33 Nordeste 0 1014.2 0.1 61
2019-09-26 12:00:00 26.5 17 Este 36 Este 0 1014.4 0.8 59
2019-09-26 11:00:00 26.3 13 Este 27 Nordeste 0 1014.5 1.5 59
2019-09-26 10:00:00 25.4 13 Nordeste 21 Nordeste 0 1014.1 1.7 61
2019-09-26 09:00:00 23.6 6 Nordeste 13 Nordeste 0 1013.6 1.4 70
2019-09-26 08:00:00 22.6 3 Norte 20 Nordeste 0 1013 1.1 71
2019-09-26 07:00:00 22.9 8 Nordeste 23 Nordeste 0 1012.4 0.4 73
2019-09-26 06:00:00 23 9 Nordeste 23 Nordeste 0 1012.2 -0.4 75
2019-09-26 05:00:00 22.6 10 Este 26 Este 0 1011.9 -0.8 78
2019-09-26 04:00:00 22.4 6 Oeste 10 Oeste 0 1012 -1.3 68
2019-09-26 03:00:00 23.2 6 Norte 17 Nordeste 0 1012.6 -0.8 68
2019-09-26 02:00:00 23.4 5 Nordeste 17 Nordeste 0 1012.7 -0.6 69
2019-09-26 01:00:00 23.3 6 Nordeste 22 Nordeste 0 1013.3 0.4 69
2019-09-26 00:00:00 23.5 10 Este 26 Este 0 1013.4 0.9 67
2019-09-25 23:00:00 23.7 9 Este 24 Este 0 1013.3 1.3 67
2019-09-25 22:00:00 23.6 9 Nordeste 26 Nordeste 0 1012.9 1.4 66
2019-09-25 21:00:00 23.9 10 Nordeste 28 Este 0 1012.5 1.1 63
2019-09-25 20:00:00 24.3 15 Este 26 Nordeste 0 1012 0.5 64
2019-09-25 19:00:00 25.8 15 Este 25 Este 0 1011.5 -0.3 52
2019-09-25 18:00:00 27.4 15 Este 27 Este 0 1011.4 -0.7 49
2019-09-25 17:00:00 27.4 19 Este 37 Este 0 1011.5 -1.1 52
2019-09-25 16:00:00 28 17 Este 35 Este 0 1011.8 -1.6 49
2019-09-25 15:00:00 28.4 16 Este 30 Este 0 1012.1 -2 47
2019-09-25 14:00:00 28.3 14 Este 33 Este 0 1012.6 -1.8 46
2019-09-25 13:00:00 27.1 18 Este 32 Este 0 1013.4 -0.9 52
2019-09-25 12:00:00 27.1 15 Este 28 Nordeste 0 1014.1 0.1 50
2019-09-25 11:00:00 26.1 16 Nordeste 30 Nordeste 0 1014.4 0.8 52
2019-09-25 10:00:00 25.3 9 Nordeste 24 Nordeste 0 1014.3 1.1 57
2019-09-25 09:00:00 22.9 3 Nordeste 8 Noroeste 0 1014 1.1 66
2019-09-25 08:00:00 21.2 3 Sudoeste 5 Oeste 0 1013.6 0.5 71
2019-09-25 07:00:00 21 0 Calma 9 Sur 0 1013.2 0 71
2019-09-25 06:00:00 20.9 3 Sur 6 Oeste 0 1012.9 -0.9 71
2019-09-25 05:00:00 21.1 2 Sur 5 Oeste 0 1013.1 -1.2 71
2019-09-25 04:00:00 21.5 3 Nordeste 10 Este 0 1013.2 -1.5 68
2019-09-25 03:00:00 21.5 2 Noroeste 11 Este 0 1013.8 -1.1 69
2019-09-25 02:00:00 21.8 3 Este 6 Sudeste 0 1014.3 -0.6 69
2019-09-25 01:00:00 22.3 4 Este 9 Nordeste 0 1014.7 -0.1 66
2019-09-25 00:00:00 22.5 2 Este 9 Este 0 1014.9 0.7 65
2019-09-24 23:00:00 22.6 5 Sudeste 14 Este 0 1014.9 1.1 63
2019-09-24 22:00:00 23 6 Nordeste 18 Nordeste 0 1014.8 1.2 62
2019-09-24 21:00:00 23.7 8 Este 16 Nordeste 0 1014.2 0.7 63
2019-09-24 20:00:00 24.5 4 Nordeste 21 Nordeste 0 1013.8 0.2 57
2019-09-24 19:00:00 25.6 10 Este 29 Nordeste 0 1013.6 -0.2 54
2019-09-24 18:00:00 27 12 Nordeste 27 Nordeste 0 1013.5 -0.8 52
2019-09-24 17:00:00 27.7 14 Nordeste 29 Nordeste 0 1013.6 -1.3 48
2019-09-24 16:00:00 27.6 14 Nordeste 32 Norte 0 1013.8 -1.8 47
2019-09-24 15:00:00 27.1 18 Nordeste 33 Nordeste 0 1014.3 -1.8 50
2019-09-24 14:00:00 27.4 15 Nordeste 30 Nordeste 0 1014.9 -1 49
2019-09-24 13:00:00 26.1 19 Nordeste 34 Nordeste 0 1015.6 0 55
2019-09-24 12:00:00 25.7 14 Nordeste 30 Nordeste 0 1016.1 1 58
2019-09-24 11:00:00 26.3 13 Este 23 Nordeste 0 1015.9 1.3 55
2019-09-24 10:00:00 25.6 6 Este 11 Este 0 1015.6 1.2 53
2019-09-24 09:00:00 23.6 0 Calma 9 Noroeste 0 1015.1 1.2 61
2019-09-24 08:00:00 21.6 2 Noroeste 11 Nordeste 0 1014.6 0.8 72
2019-09-24 07:00:00 21.7 3 Noroeste 7 Nordeste 0 1014.4 0.4 71
2019-09-24 06:00:00 21.5 4 Noroeste 9 Oeste 0 1013.9 -0.7 71
2019-09-24 05:00:00 21.4 3 Noroeste 6 Noroeste 0 1013.8 -1.2 70
2019-09-24 04:00:00 21.6 4 Oeste 12 Norte 0 1014 -1.3 68
2019-09-24 03:00:00 21.9 5 Norte 10 Nordeste 0 1014.6 -1 69
2019-09-24 02:00:00 22.2 6 Oeste 10 Nordeste 0 1015 -0.6 65
2019-09-24 01:00:00 22.7 7 Nordeste 17 Nordeste 0 1015.3 0 67
2019-09-24 00:00:00 22.9 8 Nordeste 18 Nordeste 0 1015.6 0.5 67
2019-09-23 23:00:00 23.1 9 Nordeste 18 Norte 0 1015.6 0.9 68
2019-09-23 22:00:00 23.1 7 Nordeste 20 Norte 0 1015.3 1 65
2019-09-23 21:00:00 23.4 11 Norte 22 Nordeste 0 1015.1 1 63
2019-09-23 20:00:00 24 12 Nordeste 26 Norte 0 1014.7 0.6 60
2019-09-23 19:00:00 25.3 15 Nordeste 34 Nordeste 0 1014.3 0.3 57
2019-09-23 18:00:00 26.7 13 Nordeste 31 Nordeste 0 1014.1 0 50
2019-09-23 17:00:00 27.2 13 Nordeste 34 Nordeste 0 1014.1 -0.3 49
2019-09-23 16:00:00 27.5 19 Nordeste 33 Nordeste 0 1014 -0.7 47
2019-09-23 15:00:00 27.2 18 Nordeste 35 Norte 0 1014.1 -0.7 49
2019-09-23 14:00:00 27.6 16 Nordeste 28 Este 0 1014.4 -0.4 50
2019-09-23 13:00:00 27 16 Este 28 Este 0 1014.7 0.3 53
2019-09-23 12:00:00 26.4 16 Este 31 Nordeste 0 1014.8 0.8 55
2019-09-23 11:00:00 25.7 14 Este 30 Nordeste 0 1014.8 1.2 62
2019-09-23 10:00:00 25.5 6 Este 18 Nordeste 0 1014.4 0.9 62
2019-09-23 09:00:00 23.8 4 Sudeste 11 Sudeste 0 1014 0.9 67
2019-09-23 08:00:00 21.8 2 Oeste 11 Este 0 1013.6 0.7 72
2019-09-23 07:00:00 22.4 8 Este 17 Nordeste 0 1013.5 0.4 71
2019-09-23 06:00:00 22.5 7 Nordeste 15 Nordeste 0 1013.1 -0.4 70
2019-09-23 05:00:00 22.7 9 Nordeste 23 Nordeste 0 1012.9 -0.7 69
2019-09-23 04:00:00 22.9 9 Nordeste 22 Este 0 1013.1 -0.8 70
2019-09-23 03:00:00 23.1 10 Nordeste 21 Nordeste 0 1013.5 -0.7 72
2019-09-23 02:00:00 23.4 10 Nordeste 25 Nordeste 0 1013.6 -0.9 71
2019-09-23 01:00:00 23.6 13 Nordeste 23 Nordeste 0 1013.9 0 67
2019-09-23 00:00:00 23.7 11 Norte 24 Norte 0 1014.2 1.1 69
2019-09-22 23:00:00 23.6 10 Nordeste 23 Norte 0 1014.5 2 75
2019-09-22 22:00:00 23.6 11 Nordeste 23 Norte 0 1013.9 1.9 79
2019-09-22 21:00:00 24.1 11 Nordeste 25 Nordeste 0 1013.1 1.7 81
2019-09-22 20:00:00 24.5 15 Nordeste 33 Este 0 1012.5 1.2 77
2019-09-22 19:00:00 25.4 14 Este 33 Este 0 1012 0.4 75
2019-09-22 18:00:00 27 17 Este 37 Este 0 1011.4 -0.3 65
2019-09-22 17:00:00 27.3 12 Sudeste 20 Este 0 1011.3 -0.8 69
2019-09-22 16:00:00 28 9 Sur 18 Sur 0 1011.6 -1 66
2019-09-22 15:00:00 28.8 10 Sur 17 Sur 0 1011.7 -1.2 62
2019-09-22 14:00:00 28.5 9 Sur 19 Sur 0 1012.1 -1 61
2019-09-22 13:00:00 28.1 13 Sur 23 Sur 0 1012.6 -0.4 63
2019-09-22 12:00:00 27.6 8 Sur 13 Sudeste 0 1012.9 0.4 68
2019-09-22 11:00:00 26.7 8 Este 11 Este 0 1013.1 0.6 64
2019-09-22 10:00:00 26.2 5 Sudeste 8 Sudeste 0 1013 0.9 63
2019-09-22 09:00:00 23.8 3 Sur 6 Sur 0 1012.5 0.9 76
2019-09-22 08:00:00 22.1 3 Sudoeste 6 Sur 0 1012.5 1.1 84
2019-09-22 07:00:00 22.3 2 Sudeste 9 Sur 0 1012.1 0.7 83
2019-09-22 06:00:00 22.4 5 Sudeste 6 Sudeste 0 1011.6 0 80
2019-09-22 05:00:00 22 3 Norte 5 Norte 0 1011.4 -0.7 82
2019-09-22 04:00:00 22.2 2 Este 6 Nordeste 0 1011.4 -1.1 82
2019-09-22 03:00:00 22 0 Calma 5 Este 0 1011.6 -0.8 83
2019-09-22 02:00:00 22.2 2 Este 7 Sur 0 1012.1 -0.4 82
2019-09-22 01:00:00 22.6 3 Sudeste 8 Nordeste 0 1012.5 0.4 81
2019-09-22 00:00:00 23.1 5 Nordeste 12 Oeste 0 1012.4 1.1 78
2019-09-21 23:00:00 23.5 8 Sudoeste 14 Noroeste 0 1012.5 1.7 77
2019-09-21 22:00:00 23.8 9 Noroeste 17 Noroeste 0 1012.1 1.5 68
2019-09-21 21:00:00 24.2 10 Oeste 19 Oeste 0 1011.3 0.6 66
2019-09-21 20:00:00 23.9 8 Sudeste 17 Sur 0 1010.8 0.4 77
2019-09-21 19:00:00 25.6 12 Sur 22 Sudoeste 0 1010.6 -0.1 70
2019-09-21 18:00:00 26.4 12 Sur 20 Sur 0 1010.7 -0.4 65
2019-09-21 17:00:00 27.1 15 Sur 24 Sur 0 1010.4 -0.8 62
2019-09-21 16:00:00 27.3 16 Sur 24 Sur 0 1010.7 -1 63
2019-09-21 15:00:00 27.3 14 Sur 22 Sur 0 1011.1 -0.9 62
2019-09-21 14:00:00 26.8 16 Sur 24 Sur 0 1011.2 -0.7 63
2019-09-21 13:00:00 26.4 14 Sur 22 Sur 0 1011.7 0.2 64
2019-09-21 12:00:00 26.2 12 Sur 18 Sur 0 1012 1.1 64
2019-09-21 11:00:00 25.6 9 Sur 15 Sudoeste 0 1011.9 1.4 64
2019-09-21 10:00:00 25.3 5 Este 8 Nordeste 0 1011.5 1.1 60
2019-09-21 09:00:00 23.2 3 Este 5 Este 0 1010.9 0.9 64
2019-09-21 08:00:00 21.2 3 Oeste 15 Oeste 0 1010.5 0.6 70
2019-09-21 07:00:00 21.4 6 Oeste 15 Noroeste 0 1010.4 0.4 70
2019-09-21 06:00:00 21.7 7 Noroeste 13 Oeste 0 1010 -0.1 73
2019-09-21 05:00:00 21.7 3 Oeste 6 Oeste 0 1009.9 -0.4 72
2019-09-21 04:00:00 22.1 4 Oeste 10 Oeste 0 1010 -0.7 71
2019-09-21 03:00:00 22.4 8 Noroeste 21 Oeste 0 1010.1 -1 69
2019-09-21 02:00:00 22.4 4 Oeste 16 Oeste 0 1010.3 -1.1 68
2019-09-21 01:00:00 22.7 8 Oeste 15 Oeste 0 1010.7 -0.5 69
2019-09-21 00:00:00 23 4 Oeste 6 Sur 0 1011.1 0.6 67
2019-09-20 23:00:00 23.5 4 Este 16 Sudoeste 0 1011.4 1.4 65
2019-09-20 22:00:00 23.9 9 Sur 15 Sur 0 1011.2 1.7 66
2019-09-20 21:00:00 24.7 10 Este 15 Sudeste 0 1010.5 1 64
2019-09-20 20:00:00 25.5 8 Sur 17 Este 0 1010 0.1 57
2019-09-20 19:00:00 27.5 9 Sur 17 Oeste 0 1009.5 -0.6 53
2019-09-20 18:00:00 27.2 10 Sudeste 19 Este 0 1009.5 -1 55
2019-09-20 17:00:00 26.7 15 Este 27 Este 0 1009.9 -1.4 60
2019-09-20 16:00:00 27.9 13 Este 30 Este 0 1010.1 -1.8 55
2019-09-20 15:00:00 27.8 11 Sudeste 30 Este 0 1010.5 -2 55
2019-09-20 14:00:00 27 14 Este 28 Este 0 1011.3 -1.3 61
2019-09-20 13:00:00 26.6 15 Este 24 Este 0 1011.9 -0.2 59
2019-09-20 12:00:00 25.8 11 Este 27 Este 0 1012.5 1.3 62
2019-09-20 11:00:00 25.9 12 Este 21 Este 0 1012.6 1.9 61
2019-09-20 10:00:00 25.1 5 Sudeste 11 Sudeste 0 1012.1 1.6 60
2019-09-20 09:00:00 23.5 5 Sudeste 8 Sur 0 1011.2 0.8 70
2019-09-20 08:00:00 21.1 3 Sudeste 5 Sur 0 1010.7 0.2 71
2019-09-20 07:00:00 21.3 3 Norte 8 Noroeste 0 1010.5 -0.4 69
2019-09-20 06:00:00 21.6 2 Noroeste 12 Oeste 0 1010.4 -0.9 69
2019-09-20 05:00:00 21.6 3 Noroeste 11 Oeste 0 1010.5 -1.2 69
2019-09-20 04:00:00 22.3 7 Oeste 15 Oeste 0 1010.9 -1.2 66
2019-09-20 03:00:00 22 6 Oeste 13 Oeste 0 1011.3 -0.9 66
2019-09-20 02:00:00 22.4 3 Sudeste 13 Noroeste 0 1011.7 -0.7 65
2019-09-20 01:00:00 22.6 3 Norte 12 Oeste 0 1012.1 -0.2 64
2019-09-20 00:00:00 22.6 3 Sur 8 Noroeste 0 1012.2 0.6 64
2019-09-19 23:00:00 23.2 7 Oeste 13 Oeste 0 1012.4 1.5 62
2019-09-19 22:00:00 23.5 4 Noroeste 15 Noroeste 0 1012.3 1.9 63
2019-09-19 21:00:00 24.1 5 Sudoeste 17 Oeste 0 1011.6 1.2 61
2019-09-19 20:00:00 25 9 Oeste 21 Oeste 0 1010.9 0.3 56
2019-09-19 19:00:00 26.5 10 Este 27 Este 0 1010.4 -0.2 48
2019-09-19 18:00:00 26.6 18 Este 36 Este 0 1010.4 -0.5 57
2019-09-19 17:00:00 26.5 16 Este 35 Este 0 1010.6 -0.7 59
2019-09-19 16:00:00 26.8 17 Este 39 Este 0 1010.6 -1.1 60
2019-09-19 15:00:00 27.9 16 Este 28 Nordeste 0 1010.9 -1.4 46
2019-09-19 14:00:00 28 14 Este 29 Este 0 1011.3 -1 46
2019-09-19 13:00:00 27.3 17 Este 32 Este 0 1011.7 -0.3 55
2019-09-19 12:00:00 26.5 18 Este 32 Este 0 1012.3 0.7 56
2019-09-19 11:00:00 26.2 14 Este 23 Este 0 1012.3 0.9 58
2019-09-19 10:00:00 25.1 9 Este 18 Este 0 1012 0.8 61
2019-09-19 09:00:00 22.9 2 Sur 7 Noroeste 0 1011.6 0.8 70
2019-09-19 08:00:00 21.1 4 Noroeste 10 Noroeste 0 1011.4 0.6 73
2019-09-19 07:00:00 20.8 3 Sudoeste 7 Oeste 0 1011.2 -0.2 73
2019-09-19 06:00:00 21 3 Sudoeste 9 Oeste 0 1010.8 -0.8 72
2019-09-19 05:00:00 20.9 3 Oeste 8 Oeste 0 1010.8 -1.1 71
2019-09-19 04:00:00 21.4 5 Oeste 9 Noroeste 0 1011.4 -0.7 68
2019-09-19 03:00:00 21.5 5 Oeste 11 Oeste 0 1011.6 -1 68
2019-09-19 02:00:00 21.6 3 Oeste 7 Noroeste 0 1011.9 -0.6 68
2019-09-19 01:00:00 22.4 6 Norte 13 Nordeste 0 1012.1 -0.1 67
2019-09-19 00:00:00 22.8 7 Nordeste 17 Este 0 1012.6 1.2 67
2019-09-18 23:00:00 23 8 Este 18 Nordeste 0 1012.5 1.4 69
2019-09-18 22:00:00 23.2 13 Este 22 Este 0 1012.2 1.6 68
2019-09-18 21:00:00 23.6 6 Este 32 Nordeste 0 1011.4 0.7 65
2019-09-18 20:00:00 23.7 13 Este 28 Nordeste 0 1011.1 0.5 70
2019-09-18 19:00:00 25.3 16 Este 31 Este 0 1010.6 -0.1 63
2019-09-18 18:00:00 25.8 17 Este 32 Este 0 1010.7 -0.6 61
2019-09-18 17:00:00 25.8 18 Este 36 Este 0 1010.6 -1 62
2019-09-18 16:00:00 26.7 13 Este 38 Este 0 1010.7 -1.3 62
2019-09-18 15:00:00 25.7 21 Este 38 Este 0 1011.3 -0.9 62
2019-09-18 14:00:00 26.3 20 Este 36 Este 0 1011.6 -0.7 57
2019-09-18 13:00:00 25.7 18 Este 32 Este 0 1012 -0.1 61
2019-09-18 12:00:00 25.6 15 Este 28 Este 0 1012.2 0.5 60
2019-09-18 11:00:00 25.5 15 Este 22 Este 0 1012.3 0.8 61
2019-09-18 10:00:00 24.8 8 Este 17 Nordeste 0 1012.1 1.2 60
2019-09-18 09:00:00 21.7 5 Oeste 15 Noroeste 0 1011.7 1.2 68
2019-09-18 08:00:00 20.6 6 Noroeste 12 Oeste 0 1011.5 1.4 69
2019-09-18 07:00:00 20.9 8 Oeste 11 Oeste 0 1010.9 0.4 68
2019-09-18 06:00:00 21.1 3 Oeste 9 Sudoeste 0 1010.5 -0.3 70
2019-09-18 05:00:00 21.1 3 Sudoeste 8 Oeste 0 1010.1 -1.2 71
2019-09-18 04:00:00 21.2 6 Oeste 8 Oeste 0 1010.5 -1 71
2019-09-18 03:00:00 21.5 4 Oeste 6 Noroeste 0 1010.8 -1 71
2019-09-18 02:00:00 21.8 3 Oeste 7 Oeste 0 1011.3 -0.6 70
2019-09-18 01:00:00 22 3 Sudoeste 12 Oeste 0 1011.5 0 71
2019-09-18 00:00:00 22.6 8 Este 18 Este 0 1011.8 0.9 71
2019-09-17 23:00:00 22.9 8 Este 17 Nordeste 0 1011.9 1.1 70
2019-09-17 22:00:00 23.1 10 Este 23 Este 0 1011.5 0.8 70
2019-09-17 21:00:00 23.5 14 Este 24 Este 0 1010.9 0.6 69
2019-09-17 20:00:00 23.7 13 Este 30 Este 0 1010.8 0.5 71